Maxim Guryev

Scout - Kosmos
10 Dez 2028
Sonntag
Verarbeitung

Persönlichkeit

Anpassungsfähigkeit (3) Ehrgeiz (2) Kontroverse (16) Loyalität (13) Druck (3) Professionalität (5) Fairness (1) Temperament (9)

Profil

Trainerstil Demokratisch
Lizenz Nationale B
Entschlossenheit 1
Menschenführung 3
Motivation 3
Disziplin 5
Arbeitszufriedenheit
100%
Ermüdung
0%
Rolle Scout
Gehalt 17.1K p/W
Vertrag 14.03.2030

Leistung

Verhalten Gut
Trainingseffektivität
24%
Spielerentwicklung
35%
Verletzungsprävention
35%
Taktische Umsetzung
25%

Letzte Ereignisse

Spieler begutachtet jetzt
Nahm an einer Scouting-Besprechung teil jetzt
Spieler begutachtet jetzt
Spieler begutachtet jetzt
Spieler begutachtet 7T her
Spiel beobachtet 7T her
Spieler begutachtet 7T her
Spieler begutachtet 7T her

Aktuell beobachtet

141
Spieler Verein Status Fähigkeit Vertrauen Beobachtet Zuletzt beobachtet Letzte Stimme
Tiago Taobas Central Norte Aktiv 102 / 110 40% 2 09.12.2028 -
Lorenzo Barrera Agropecuario Argentino Aktiv 84 / 88 40% 1 09.12.2028 -
Dmitry Kamenschikov Chernomorets Aktiv 104 / 92 40% 1 08.12.2028 -
Nikita Golub Belshina Aktiv 87 / 83 40% 1 08.12.2028 -
Matías Núñez Atenas Aktiv 91 / 98 40% 5 05.12.2028 -
Germán Cervera Alvarado Aktiv 90 / 109 40% 3 05.12.2028 -
Christian Silva Santiago Wanderers Aktiv 78 / 73 40% 1 04.12.2028 -
David Maguicha Atlanta Aktiv 90 / 112 40% 1 03.12.2028 -
Diego González San Luis Aktiv 97 / 98 40% 1 30.11.2028 -
Gonzalo Flores Almirante Brown Aktiv 121 / 118 40% 4 29.11.2028 -
Ilja Vsyakikh Strogino Aktiv 82 / 84 40% 1 29.11.2028 -
Leenhan Romero Iquique Aktiv 105 / 91 40% 1 28.11.2028 -
Diego Méndez Tacuarembo Aktiv 97 / 81 40% 1 28.11.2028 -
Dmitriy Nizhnik Volna Pinsk Aktiv 65 / 71 40% 5 27.11.2028 -
Artem Stankevich Smorgon Aktiv 72 / 73 40% 4 27.11.2028 -
Jerónimo Porto Lapegüe San Telmo Aktiv 95 / 120 40% 2 26.11.2028 -
Elías Ovelar General Diaz Aktiv 86 / 76 40% 1 24.11.2028 -
Diego Guallama All Boys Aktiv 121 / 114 40% 2 23.11.2028 -
Luca Duarte Arsenal Aktiv 86 / 104 40% 1 23.11.2028 -
Nahuel Marzochi Colon Aktiv 90 / 100 40% 2 22.11.2028 -
Joaquín Zappacosta Morón Aktiv 79 / 115 40% 2 21.11.2028 -
Alexandr Komissarov Torpedo Vladimir Aktiv 70 / 70 40% 5 16.11.2028 -
Dylan Cabral Arsenal Aktiv 89 / 117 40% 7 12.11.2028 -
Wladimir Cid San Marcos de Arica Aktiv 97 / 107 40% 2 12.11.2028 -
Juan Peinipil Madryn Aktiv 93 / 103 40% 3 11.11.2028 -
Fernando Rodríguez Venialgo Daugavpils Aktiv 78 / 83 40% 3 10.11.2028 -
Egor Petrov Slonim Aktiv 72 / 73 40% 4 09.11.2028 -
Enzo Abondetto Central Norte Aktiv 106 / 98 40% 4 08.11.2028 -
Ramiro Jara Racing Aktiv 83 / 78 40% 1 06.11.2028 -
Lucas Rodríguez Uruguay Montevideo Aktiv 106 / 98 40% 2 04.11.2028 -
Diego Robles Union Espanola Aktiv 84 / 106 40% 1 04.11.2028 -
Egor Yuschenko Lida Aktiv 70 / 76 40% 3 30.10.2028 -
Gianluca Pugliese Güemes Aktiv 106 / 90 40% 1 28.10.2028 -
Joaquín Varela Albion Aktiv 83 / 90 40% 1 25.10.2028 -
Emiliano García Uruguay Montevideo Aktiv 91 / 88 40% 3 23.10.2028 -
Juan Carabajal Central Norte Aktiv 87 / 90 40% 3 16.10.2028 -
Agustín Rodríguez Colon Aktiv 102 / 81 40% 1 11.10.2028 -
Ilya Tishurov Osipovichi Aktiv 73 / 74 40% 4 10.10.2028 -
Leandro Ruiz Volna Pinsk Aktiv 86 / 67 40% 1 10.10.2028 -
Nikolay Sobolev Estudiantes de Caracas Aktiv 55 / 56 40% 1 09.10.2028 -
Nahuel Albano La Luz Aktiv 89 / 98 40% 2 08.10.2028 -
Tomás Benardoni Los Andes Aktiv 108 / 112 40% 1 02.10.2028 -
Danil Novoselov Dinamo Kirov Aktiv 62 / 70 51% 1 28.08.2028 -
Joshuan Berríos Deportivo La Guaira Aktiv 89 / 88 40% 1 28.08.2028 -
Danila Slesarchuk Smorgon Aktiv 82 / 98 40% 1 01.08.2028 -
Mauro Schönfeld Morón Aktiv 107 / 98 40% 1 24.07.2028 -
Mauricio Tévez Chaco For Ever Aktiv 102 / 99 40% 1 17.07.2028 -
Wojciech Szafranek Zenit Penza Aktiv 97 / 77 40% 8 11.07.2028 -
Sergey Guzyuk Strogino Aktiv 79 / 78 40% 8 04.07.2028 -
Artem Ntumba Rubin Yalta Aktiv 81 / 66 40% 5 26.06.2028 -
Nikita Rozhkov Saturn Aktiv 94 / 72 40% 7 14.06.2028 -
Magomed Nasibov Pobeda Aktiv 75 / 81 40% 11 09.06.2028 -
Yegor Pankov Luki-Energiya Aktiv 78 / 59 40% 4 09.06.2028 -
Ilja Rubtsov Chaika Aktiv 108 / 109 40% 7 31.05.2028 -
Yaroslav Dol Nart Aktiv 78 / 89 40% 4 31.05.2028 -
Vladislav Agalakov Metallurg Aktiv 74 / 75 40% 6 30.05.2028 -
Magomed Ibragimov Legion Aktiv 59 / 55 40% 1 30.05.2028 -
Dmitry Kuptsov Spartak Tambov Aktiv 87 / 89 40% 9 29.05.2028 -
Wilman Moreira Irkutsk Aktiv 70 / 63 40% 9 28.05.2028 -
Maxim Chikanchi Sibir Aktiv 83 / 107 40% 1 28.05.2028 -
Marat Tlekhugov Yenisey Aktiv 89 / 95 40% 1 27.05.2028 -
Tobías Dieni Ryazan Aktiv 76 / 63 40% 11 26.05.2028 -
Fabrizio Fazzolari Legion Aktiv 67 / 81 40% 2 26.05.2028 -
Artem Stepanovich Sevastopol Aktiv 91 / 76 40% 4 23.05.2028 -
Jakub Jakimiuk Uralets-TS Aktiv 87 / 68 40% 3 23.05.2028 -
Timur Chetoev Kvant Aktiv 50 / 74 40% 3 22.05.2028 -
Nikita Kireev Dinamo Vologda Aktiv 77 / 92 40% 11 21.05.2028 -
Ilja Stefanovich Leningradets Aktiv 102 / 110 40% 5 20.05.2028 -
Jorge Gonzalez Viitorul Aktiv 95 / 114 40% 2 18.05.2028 -
Valery Arkhipenko Torpedo Vladimir Aktiv 76 / 84 40% 2 17.05.2028 -
Yegor Ponomarev Tver Aktiv 87 / 67 40% 6 15.05.2028 -
Maxim Sergeev Spartak Tambov Aktiv 69 / 85 40% 6 15.05.2028 -
Vladislav Bragin SKA Khabarovsk Aktiv 77 / 88 40% 4 15.05.2028 -
Alexandr Goryachkin Strogino Aktiv 83 / 85 40% 4 14.05.2028 -
Mikhail Maiboroda Luki-Energiya Aktiv 53 / 57 40% 2 13.05.2028 -
Daniil Arsentjev Orel Aktiv 83 / 89 40% 4 12.05.2028 -
Gevork Sarkisyan Saturn Aktiv 76 / 66 40% 12 11.05.2028 -
Gocha Gogrichiani Volna Aktiv 85 / 94 40% 1 11.05.2028 -
Rohan Vaughan Zenit Penza Aktiv 54 / 63 40% 1 09.05.2028 -
Nicolae Sula Kvant Aktiv 63 / 61 40% 7 07.05.2028 -
Denis Rubanov Dinamo Stavropol Aktiv 93 / 104 40% 7 06.05.2028 -
Ivan Matyushenko Alania Aktiv 98 / 73 40% 3 06.05.2028 -
Anton Gurylev Pobeda Aktiv 70 / 62 40% 2 03.05.2028 -
Sergey Gaiduk Salyut Aktiv 82 / 76 40% 8 30.04.2028 -
Nikita Dorofeev Dinamo Kirov Aktiv 81 / 78 40% 1 26.04.2028 -
Anton Betyuzhnov Dinamo Vologda Aktiv 68 / 94 40% 5 24.04.2028 -
Aziz Gaziev Dinamo St Petersburg Aktiv 77 / 91 40% 1 24.04.2028 -
Danila Yezhkov Dinamo Vologda Aktiv 82 / 97 40% 4 20.04.2028 -
Etsgar Cruz Ruch Aktiv 84 / 91 40% 2 15.04.2028 -
Artur Kozyrev Volna Aktiv 74 / 97 40% 1 09.04.2028 -
Ilja Glebov Dinamo Stavropol Aktiv 79 / 65 40% 1 04.04.2028 -
Timur Kim Arsenal Tula Aktiv 55 / 63 40% 1 03.04.2028 -
Vladimir Uljanovskiy Chelyabinsk Aktiv 95 / 66 40% 1 24.03.2028 -
Ilja Gruznov Khimik Aktiv 75 / 84 40% 10 22.03.2028 -
Andrey Domotsev Mashuk Aktiv 79 / 93 40% 2 14.03.2028 -
Gadji Budunov Angusht Aktiv 78 / 97 40% 1 14.03.2028 -
Daniil Konoplev Dinamo Bryansk Aktiv 77 / 90 40% 5 09.03.2028 -
Vyacheslav Papava Slutsk Aktiv 74 / 72 40% 4 21.02.2028 -
Vladislav Chebotar Slutsk Aktiv 83 / 89 40% 1 29.01.2028 -
Vladislav Pulkach Vitebsk Aktiv 78 / 89 40% 5 23.01.2028 -
Dmitriy Latykhov Bumprom Gomel Aktiv 79 / 76 40% 4 20.01.2028 -
Maksim Chalavach Lokomotiv Gomel Aktiv 71 / 82 40% 1 05.01.2028 -
Grenik Petrosyan Torpedo-BelAZ Aktiv 86 / 81 40% 3 25.12.2027 -
Hleb Shikavka Lokomotiv Gomel Aktiv 67 / 65 40% 4 25.12.2027 -
Abu Sufyan Waddu Naftan Aktiv 71 / 63 40% 1 19.12.2027 -
Mikhail Gainov Dinamo Stavropol Aktiv 83 / 83 40% 3 16.12.2027 -
Daniil Kulikov Belshina Aktiv 80 / 68 40% 2 15.12.2027 -
Ruslan Gogniev Lida Aktiv 91 / 70 40% 3 01.12.2027 -
Shamil Saaduev Pobeda Aktiv 71 / 92 40% 4 24.10.2027 -
Omar Bautista Gerez Central Córdoba SdE Aktiv 93 / 84 40% 1 21.10.2027 -
Oleg Tyulkov Osipovichi Aktiv 53 / 72 40% 1 19.10.2027 -
Evgeny Voronin Volga Aktiv 87 / 103 40% 8 11.10.2027 -
Roman Minaev Vitebsk Aktiv 69 / 75 40% 1 09.08.2027 -
Maksym Shevchenko Baranovichi Aktiv 92 / 92 40% 1 12.07.2027 -
Daniil Kondrakov KDV Tomsk Aktiv 92 / 86 40% 3 05.07.2027 -
Maxim Kutovoy Salyut Aktiv 98 / 72 40% 4 05.06.2027 -
Vladislav Yakovlev Volga Aktiv 83 / 76 40% 2 01.06.2027 -
Surkhaikhan Abdullaev KAMAZ Aktiv 80 / 99 40% 2 31.05.2027 -
Giuseppe D'Agostino Giugliano Aktiv 112 / 80 40% 4 31.05.2027 -
Nikita Simdyankin KDV Tomsk Aktiv 93 / 91 40% 3 29.05.2027 -
Vitaly Dunay (Karpenko) Chaika Aktiv 98 / 101 40% 2 26.05.2027 -
Gabriel Monjes Hamrun Spartans Aktiv 98 / 88 40% 1 26.05.2027 -
Jacobo Alcalde SKA Khabarovsk Aktiv 92 / 107 40% 3 24.05.2027 -
Rashid Magomedov Neftekhimik Aktiv 82 / 100 40% 1 24.05.2027 -
Morgan Arnstad Chaika Aktiv 85 / 97 40% 1 15.05.2027 -
Beka Djanelidze Rubin Yalta Aktiv 74 / 59 40% 1 12.05.2027 -
Kirill Mogel Dinamo Barnaul Aktiv 65 / 90 40% 2 11.05.2027 -
Alexandr Shlenkin Dinamo Bryansk Aktiv 71 / 55 40% 1 02.05.2027 -
Nikita Pogrebnev Ryazan Aktiv 89 / 88 40% 2 26.04.2027 -
Rashid Salimov Pobeda Aktiv 83 / 65 40% 1 26.04.2027 -
Daniil Agureev Amkar Aktiv 92 / 96 40% 3 22.04.2027 -
Kirill Cheburakov Rostov Aktiv 77 / 88 40% 1 18.04.2027 -
Nikolay Maximov Krylya Sovetov Aktiv 67 / 74 40% 3 16.04.2027 -
Dmitry Lesnikov Volgar Aktiv 93 / 94 40% 1 16.04.2027 -
Dmitry Solovjov Chertanovo Aktiv 56 / 70 40% 1 15.04.2027 -
Nikita Khlusov Kuban Holding Aktiv 54 / 59 40% 1 05.04.2027 -
James Rodrigues Nart Aktiv 67 / 71 40% 1 05.04.2027 -
Ivan Gulko KAMAZ Aktiv 84 / 70 40% 1 16.03.2027 -
Francisco Vergara Gimnasia La Plata Aktiv 93 / 78 40% 1 01.08.2026 -
Kirill Yakuta Bumprom Gomel Aktiv 42 / 61 40% 1 01.08.2026 -
Franco Baldassarra Kauno Zalgiris Aktiv 119 / 116 40% 1 01.08.2026 -